Ride Results

Murrumba Magic (03-08-2008)
Ride distance: 100.0 km

Outcomes - Murrumba Magic (03-08-2008)
Division No. of Entries Retired / DNE Completed Withdrawn Ineligible V/O Percentage Completed
HW 17 - 9 3 - 5 52.94%
MW 37 - 27 3 - 7 72.97%
LW 18 - 14 1 - 3 77.78%
JN 8 - 8 - - - 100.00%
Totals 80 - 58 7 - 15 72.50%
Results - Murrumba Magic (03-08-2008)
No. Rider Horse Place Time Leg Speeds Total
Km/Hr
H/R bpm
Heavyweight
47 Davin Coughran Jessie Ima James 1 5:55:00 15.8, 17.2, 18.2 16.90 45, 49, 48, 59 (Avg:52)
65 Paul Lengronne Johroy Custom Made 2 6:02:00 16.7, 15.5, 17.6 16.57 34, 45, 45, 52 (Avg:47)
77 Jonnie White Die Kinder Spyder 3 6:49:00 15.2, 15.7, 12.8 14.67 31, 33, 37, 40 (Avg:36)
25 Olaf Lochtenberg Matta Mia Ademi 4 6:57:00 13.7, 14.2, 15.7 14.39 38, 46, 50, 47 (Avg:47)
42 Derek Armitage Moorah Park Mickerby 5 7:33:00 12.8, 12.7, 14.5 13.25 31, 38, 36, 37 (Avg:37)
37 Peter Toft Tora Blar-Zay 5 7:33:00 14.2, 12.2, 13.1 13.25 28, 46, 49, 39 (Avg:44)
26 Jeff Trevarthen Sarandeep 7 7:39:00 13.1, 13.0, 12.9 13.07 30, 40, 48, 36 (Avg:41)
53 Len Law Lenannlaw Vitality 8 9:31:00 10.9, 11.9, 8.6 10.51 35, 46, 55, 48 (Avg:49)
7 Vern Berry Splitters Creek Watch the Tempo 9 9:43:00 11.2, 10.3, 9.1 10.29 31, 43, 47, 49 (Avg:46)
30 Peter Birch Hillbrae May Lame L3 0:00:00 16.3, 17.5, 17.2 - 31, 41, 45, 57 (Avg:47)
13 Maurice Gray Chazar Fire Nic Ice Metabolics L2 0:00:00 13.4, 12.4 - 37, 43, 52 (Avg:47)
45 Peter McDonald Wollumbin Farah Lame L2 0:00:00 16.7, 17.3 - 36, 48, 53 (Avg:50)
38 Ivan Sampson Hilbrae LC Lame L2 0:00:00 10.2, 10.7 - 32, 38, 43 (Avg:40)
43 Peter Casey Lagoon Hill Rapadash Lame L1 0:00:00 10.6 - 35, 41 (Avg:41)
6 Paul Fitzgerald Merton Amadeus Withdrawn L1 0:00:00 - - 38, 43 (Avg:43)
51 David Pembroke Rahim Whispah Withdrawn L1 0:00:00 - - 24, 38 (Avg:38)
19 Matt Sample Tarrangower Crecendo Withdrawn L1 0:00:00 - - 33, 37 (Avg:37)
Middleweight
70 Ben Caslick Hazeldean Jedaa 1 5:12:00 15.7, 21.2, 24.1 19.23 34, 46, 50, 52 (Avg:49)
66 Dale Hargreaves Kai Hai Sterling Aaramis 2 5:30:00 16.9, 19.2, 19.0 18.18 34, 45, 37, 51 (Avg:44)
72 Joyce Corbett Reeflex 3 5:39:00 16.3, 18.0, 19.7 17.70 35, 40, 50, 46 (Avg:45)
17 Brook Sample Brookleigh Mozart 4 5:42:00 13.5, 23.0, 20.5 17.54 43, 44, 40, 41 (Avg:41)
10 Heather Roberts Bagherra Bethany 5 5:52:00 16.7, 16.9, 17.6 17.05 36, 46, 50, 49 (Avg:48)
55 Donna Brooker Hirstglen Fargo 6 6:15:00 14.5, 16.7, 17.6 16.00 34, 46, 46, 46 (Avg:46)
28 Gayle Holmes Captain's Creek Rupert 7 6:24:00 14.3, 16.7, 16.3 15.63 32, 49, 52, 49 (Avg:50)
54 Vanessa Tiffen Hirstglen Texas Rose 7 6:24:00 14.3, 17.0, 16.0 15.63 37, 44, 45, 49 (Avg:46)
20 Stephen Gray Kasbah Kid 9 6:35:00 16.2, 17.0, 12.3 15.19 38, 45, 47, 55 (Avg:49)
22 Carolyn Strahan Shahreena 'Al Amira 9 6:35:00 16.2, 17.0, 12.3 15.19 30, 42, 45, 42 (Avg:43)
57 Tim Weismann Hirstglen Zepplin 11 6:38:00 14.0, 15.2, 16.7 15.08 35, 41, 48, 47 (Avg:45)
9 Sue Crockett Dakila Renoasette 12 6:57:00 13.8, 13.2, 17.0 14.39 30, 47, 51, 44 (Avg:47)
39 Jan Tyrrell Fabio 12 6:57:00 13.8, 13.4, 16.7 14.39 34, 43, 43, 45 (Avg:43)
5 Caroline Fitzgerald Lanamere Femmara 14 7:27:00 13.8, 12.6, 13.8 13.42 42, 42, 47, 47 (Avg:45)
74 Leeanne Bartlett Caramea Dancing Heart 15 7:30:00 13.2, 13.1, 13.6 13.33 32, 45, 46, 48 (Avg:46)
11 Justin Otto Count Lea 16 7:33:00 13.2, 13.1, 13.3 13.25 28, 39, 38, 0 (Avg:25)
27 Tanya Trevarthen Cicada Lodge Oliver Twist 17 7:39:00 13.1, 13.0, 12.9 13.07 38, 45, 49, 50 (Avg:48)
63 Gerard Bou Splendacrest Dryad 18 7:57:00 13.2, 12.4, 11.8 12.58 39, 45, 48, 41 (Avg:44)
60 Takeshi Ito Splendacrest Perfection 18 7:57:00 13.2, 12.4, 11.8 12.58 36, 43, 54, 51 (Avg:49)
59 Shigeru Ogawa Keisha 18 7:57:00 13.2, 12.4, 11.8 12.58 31, 36, 39, 43 (Avg:39)
21 Janine Dwyer Ashraf Sparkling Panache 21 8:03:00 12.9, 13.0, 11.0 12.42 36, 49, 45, 56 (Avg:50)
33 Simone Krahnen Ardai 22 8:05:00 11.9, 11.9, 13.6 12.37 42, 46, 51, 50 (Avg:49)
68 Sally Summers Harry Potter 23 8:07:00 13.1, 11.9, 11.6 12.32 36, 44, 39, 49 (Avg:44)
76 Ken Moir Eskdale Shakago Bae 24 8:08:00 11.8, 12.0, 13.2 12.30 37, 41, 44, 44 (Avg:43)
23 Camille Champagne Brookleigh Junior 25 9:06:00 11.8, 11.3, 9.5 10.99 37, 49, 43, 50 (Avg:47)
15 Kimberley Ryan Cyrus 25 9:06:00 11.8, 11.2, 9.6 10.99 36, 36, 37, 41 (Avg:38)
52 Megan Law Nikki 27 9:31:00 10.9, 11.9, 8.6 10.51 38, 40, 58, 52 (Avg:50)
49 Judy Battams El Rebel Stimulator Lame L3 0:00:00 13.8, 27.4, 12.7 - 39, 51, 54, 56 (Avg:53)
64 Marion Lengronne Karim's Pride Lame L3 0:00:00 16.7, 19.4, 19.0 - 31, 41, 42, 45 (Avg:42)
40 Kerrie McAuliffe Gurangada Sundance Lame L3 0:00:00 6.2, 16.9, 17.2 - 30, 42, 38, 41 (Avg:40)
67 Wayne Parker Kynnum Park Shaniko Lame L3 0:00:00 9.6, 12.3, 16.5 - 33, 42, 50, 46 (Avg:46)
46 Peter Pike Sundust Jack Heart Rate L3 0:00:00 14.2, 15.8, 15.4 - 32, 42, 49, 63 (Avg:51)
41 Carmel Trevorrow Burralga Jack Daniels Lame L3 0:00:00 12.8, 12.7, 13.5 - 38, 47, 51, 50 (Avg:49)
14 Mark Grogan Duo Park Orsum Lame L2 0:00:00 14.2, 15.7 - 37, 46, 47 (Avg:46)
62 Tarnia Kittel Bullarto Fiorelli Withdrawn L2 0:00:00 - - 39, 42, 47 (Avg:44)
75 Heather Parry Miss Dee Fi Withdrawn L1 0:00:00 - - 33, 42 (Avg:42)
29 Akhmed Pshunov Aloha Spartacus Withdrawn L1 0:00:00 - - 28, 44 (Avg:44)
Lightweight
1 Angela Hawks Crysari 1 5:12:00 15.7, 21.2, 24.1 19.23 37, 37, 45, 49 (Avg:43)
71 Sally Genninges Arinya Park Nazzerin 2 5:30:00 13.8, 27.4, 19.0 18.18 33, 40, 47, 43 (Avg:43)
73 Shay Corbett Murland Park Mikahla 3 5:39:00 16.3, 18.0, 19.7 17.70 37, 40, 42, 44 (Avg:42)
24 Amanda Powell Summit Park Raz 4 5:52:00 16.2, 17.6, 17.6 17.05 31, 36, 39, 48 (Avg:41)
48 Amaya Thomas Pilgrim 5 5:55:00 15.8, 17.2, 18.2 16.90 32, 41, 42, 45 (Avg:42)
18 Kaylea Maher Bacchante Casablanca 6 6:37:00 12.1, 20.6, 15.7 15.11 34, 42, 43, 45 (Avg:43)
16 Saasha Grogan Moondarra Cimeron 7 7:26:00 11.8, 14.4, 15.1 13.45 37, 41, 44, 50 (Avg:45)
44 Karen Trundell Rodborough Eclipse 8 7:33:00 12.8, 12.7, 14.5 13.25 32, 37, 44, 40 (Avg:40)
34 Brooke Warner Dakila Pascalle 8 7:33:00 14.2, 12.2, 13.1 13.25 34, 46, 49, 47 (Avg:47)
79 Silke Weyland Solitory Dream 10 7:41:00 12.6, 13.1, 13.3 13.02 34, 41, 45, 41 (Avg:42)
2 Barbara Draheim Danbar Silk N' Satinn 11 8:07:00 13.3, 11.5, 11.9 12.32 33, 43, 45, 42 (Avg:43)
69 Della Weier Kahshah 11 8:07:00 13.1, 11.9, 11.6 12.32 36, 39, 41, 42 (Avg:40)
35 Julie Fletcher Hillbrae Bimbo 13 9:40:00 10.2, 10.7, 9.9 10.34 35, 40, 48, 50 (Avg:46)
8 Yvonne Knight Gravy Train 14 9:43:00 11.2, 10.3, 9.1 10.29 34, 44, 47, 50 (Avg:47)
3 Margaret Harvey Banbra Shadow Lame L3 0:00:00 13.3, 11.5, 11.9 - 30, 43, 43, 44 (Avg:43)
50 Carla Jones Mt Eerwah Nikita Lame L3 0:00:00 15.7, 16.7, 12.6 - 30, 38, 41, 43 (Avg:40)
4 Ainsley King Willowvale Sirahh Lame L3 0:00:00 13.0, 12.5, 14.5 - 33, 35, 42, 40 (Avg:39)
58 Sandra Bishop Kholonial Amazzon Withdrawn L1 0:00:00 - - 34, 41 (Avg:41)
Junior
12 David Anderson Jnr Tobinlee Ishmale 1 5:12:00 16.9, 19.2, 24.1 19.23 34, 42, 44, 49 (Avg:45)
61 Ingrid Ambrosiussen Performance Park Lady Kharisma 2 5:52:00 16.7, 16.9, 17.6 17.05 32, 47, 44, 46 (Avg:45)
56 Jamie Green Hirstglen Maybe 3 6:38:00 14.0, 15.3, 16.5 15.08 32, 43, 45, 46 (Avg:44)
36 Alexandra Toft Bramall Jazzmin 4 7:33:00 14.2, 12.2, 13.1 13.25 26, 43, 49, 41 (Avg:44)
78 Jessyca Dakin Yul-Arai Hajeel 5 7:41:00 12.6, 13.1, 13.3 13.02 38, 46, 51, 54 (Avg:50)
80 Lainie Zischke Tamar 5 7:41:00 12.6, 13.1, 13.3 13.02 36, 39, 42, 44 (Avg:41)
31 Connor Krahnen Kalkadoon Shalom 7 8:05:00 11.9, 11.9, 13.6 12.37 39, 47, 46, 50 (Avg:47)
32 Erin Krahnen Shaqeil 7 8:05:00 11.9, 11.9, 13.6 12.37 32, 41, 50, 36 (Avg:42)